Time;durP1;ratioP1;P1;durP2;ratioP2;P2;SDS_P1;SDS_P2;PMS_P1;PMS_P2;Temp;Humidity;BMP_temperature;BMP_pressure;BME280_temperature;BME280_humidity;BME280_pressure;Samples;Min_cycle;Max_cycle;Signal;HPM_P1;HPM_P2
2022/05/08 00:00:24;;;;;;;3.70;0.43;;;;;;;13.37;64.13;101863.63;5026250;28;20029;-67
2022/05/08 00:02:52;;;;;;;2.13;0.65;;;;;;;13.34;64.63;101872.41;5029850;28;20040;-69
2022/05/08 00:05:18;;;;;;;0.43;0.30;;;;;;;13.36;64.17;101870.94;5029399;28;20033;-68
2022/05/08 00:07:43;;;;;;;0.30;0.30;;;;;;;13.33;64.04;101871.63;5028717;28;20076;-69
2022/05/08 00:10:09;;;;;;;0.13;0.13;;;;;;;13.21;64.61;101877.06;5028632;28;20065;-66
2022/05/08 00:12:36;;;;;;;0.15;0.15;;;;;;;13.23;64.71;101885.63;5029095;28;20069;-66
2022/05/08 00:15:04;;;;;;;0.28;0.28;;;;;;;13.20;64.18;101878.19;5026943;28;20316;-66
2022/05/08 00:17:34;;;;;;;0.20;0.20;;;;;;;13.11;65.00;101876.75;5029996;28;20029;-67
2022/05/08 00:20:01;;;;;;;0.20;0.20;;;;;;;13.07;65.15;101876.66;5028802;28;20040;-66
2022/05/08 00:22:26;;;;;;;2.65;0.30;;;;;;;13.03;65.73;101877.63;5026908;28;20033;-68
2022/05/08 00:24:51;;;;;;;1.45;0.35;;;;;;;13.01;65.88;101877.97;5024985;28;20103;-68
2022/05/08 00:27:17;;;;;;;0.38;0.38;;;;;;;12.96;66.14;101874.72;5030325;28;20037;-67
2022/05/08 00:29:42;;;;;;;0.20;0.20;;;;;;;12.89;65.64;101877.22;5027140;28;20104;-69
2022/05/08 00:32:08;;;;;;;3.97;0.50;;;;;;;12.90;65.77;101878.78;5029748;28;20538;-67
2022/05/08 00:34:33;;;;;;;0.82;0.43;;;;;;;12.87;65.76;101879.47;5026302;28;20029;-66
2022/05/08 00:36:59;;;;;;;0.60;0.38;;;;;;;12.74;66.29;101870.56;5029162;28;20040;-68
2022/05/08 00:39:24;;;;;;;0.20;0.20;;;;;;;12.72;66.62;101872.06;5028743;28;20064;-68
2022/05/08 00:41:50;;;;;;;1.08;0.57;;;;;;;12.66;67.00;101871.47;5024246;28;20045;-66
2022/05/08 00:44:15;;;;;;;1.95;0.38;;;;;;;12.68;67.26;101859.19;5027403;28;20021;-67
2022/05/08 00:46:41;;;;;;;0.50;0.40;;;;;;;12.53;67.92;101865.28;5027477;28;20036;-70
2022/05/08 00:49:07;;;;;;;0.50;0.40;;;;;;;12.49;67.77;101861.69;5028745;28;20650;-66
2022/05/08 00:51:35;;;;;;;4.30;0.50;;;;;;;12.42;68.40;101874.19;5025202;28;20036;-68
2022/05/08 00:54:03;;;;;;;0.25;0.20;;;;;;;12.49;67.66;101863.59;5028095;28;20033;-67
2022/05/08 00:56:28;;;;;;;4.88;0.43;;;;;;;12.43;68.45;101865.72;5028170;28;20045;-70
2022/05/08 00:58:55;;;;;;;1.30;0.40;;;;;;;12.38;68.75;101865.97;5026596;28;20042;-66
2022/05/08 01:01:21;;;;;;;0.28;0.28;;;;;;;12.35;68.30;101861.22;5026404;28;20048;-67
2022/05/08 01:03:47;;;;;;;0.17;0.17;;;;;;;12.29;68.84;101865.25;5027720;28;20041;-67
2022/05/08 01:06:15;;;;;;;0.47;0.47;;;;;;;12.31;68.98;101868.41;5027066;28;20477;-67
2022/05/08 01:08:45;;;;;;;2.30;0.70;;;;;;;12.22;69.36;101862.34;5025340;28;20035;-68
2022/05/08 01:11:12;;;;;;;0.20;0.20;;;;;;;12.22;69.51;101864.25;5025328;28;20285;-66
2022/05/08 01:13:39;;;;;;;3.40;0.88;;;;;;;12.23;69.41;101860.44;5026444;28;20065;-66
2022/05/08 01:16:22;;;;;;;0.20;0.20;;;;;;;12.16;69.58;101862.88;5025373;28;20041;-69
2022/05/08 01:18:49;;;;;;;0.22;0.22;;;;;;;12.09;69.61;101868.06;5026001;28;20044;-66
2022/05/08 01:21:17;;;;;;;0.60;0.55;;;;;;;12.15;69.16;101866.72;5028602;28;20033;-67
2022/05/08 01:23:44;;;;;;;0.20;0.20;;;;;;;12.00;70.19;101865.44;5024463;28;20037;-66
2022/05/08 01:26:10;;;;;;;0.63;0.40;;;;;;;11.96;69.83;101869.16;5026505;28;20116;-66
2022/05/08 01:28:36;;;;;;;0.20;0.20;;;;;;;11.93;70.85;101875.19;5025831;28;20041;-69
2022/05/08 01:31:01;;;;;;;0.45;0.35;;;;;;;11.85;71.15;101870.69;5027765;28;20488;-66
2022/05/08 01:33:27;;;;;;;0.38;0.20;;;;;;;11.97;70.10;101871.50;5023024;28;20514;-66
2022/05/08 01:35:52;;;;;;;3.65;0.52;;;;;;;11.83;70.75;101867.56;5026250;28;20036;-68
2022/05/08 01:38:20;;;;;;;0.52;0.30;;;;;;;11.82;70.33;101874.06;5022917;28;20120;-64
2022/05/08 01:40:46;;;;;;;0.30;0.30;;;;;;;11.73;71.15;101869.53;5022396;28;20033;-70
2022/05/08 01:43:12;;;;;;;0.35;0.35;;;;;;;11.78;70.70;101868.53;5023305;28;20040;-66
2022/05/08 01:45:39;;;;;;;0.98;0.43;;;;;;;11.69;70.52;101882.09;5025120;28;20065;-66
2022/05/08 01:48:21;;;;;;;0.70;0.30;;;;;;;11.61;71.15;101882.16;5025072;28;20037;-68
2022/05/08 01:50:50;;;;;;;0.40;0.40;;;;;;;11.57;71.80;101884.75;5026420;28;20056;-68
2022/05/08 01:53:17;;;;;;;0.88;0.40;;;;;;;11.58;71.75;101880.09;5027737;28;20114;-65
2022/05/08 01:55:42;;;;;;;0.35;0.20;;;;;;;11.57;70.93;101883.94;5022730;28;20037;-65
2022/05/08 01:58:07;;;;;;;3.13;0.28;;;;;;;11.51;71.80;101882.56;5027025;28;20028;-66
2022/05/08 02:00:33;;;;;;;0.55;0.30;;;;;;;11.50;71.56;101881.75;5025484;28;20037;-65
2022/05/08 02:03:00;;;;;;;3.92;0.55;;;;;;;11.45;71.58;101875.78;5026317;28;20116;-66
2022/05/08 02:05:30;;;;;;;1.00;0.50;;;;;;;11.40;72.13;101884.84;5023642;28;20025;-67
2022/05/08 02:07:56;;;;;;;0.40;0.40;;;;;;;11.38;72.26;101883.63;5025656;28;20112;-68
2022/05/08 02:10:22;;;;;;;0.63;0.40;;;;;;;11.31;72.78;101877.94;5026262;28;20511;-66
2022/05/08 02:12:48;;;;;;;0.20;0.20;;;;;;;11.27;73.08;101885.13;5026583;28;20041;-67
2022/05/08 02:15:15;;;;;;;0.43;0.43;;;;;;;11.24;72.74;101883.88;5024683;28;20392;-65
2022/05/08 02:17:41;;;;;;;3.75;0.82;;;;;;;11.23;73.02;101881.50;5026492;28;20047;-69
2022/05/08 02:20:08;;;;;;;1.17;0.50;;;;;;;11.18;72.59;101887.09;5023918;28;20033;-66
2022/05/08 02:22:34;;;;;;;2.25;0.45;;;;;;;11.19;72.75;101880.59;5027906;28;20079;-66
2022/05/08 02:25:00;;;;;;;1.45;1.35;;;;;;;11.09;72.97;101886.38;5023192;28;20033;-65
2022/05/08 02:27:26;;;;;;;0.80;0.75;;;;;;;11.06;73.84;101876.22;5022895;28;20041;-65
2022/05/08 02:29:52;;;;;;;0.52;0.52;;;;;;;11.06;73.84;101878.91;5025302;28;20116;-65
2022/05/08 02:32:19;;;;;;;0.95;0.30;;;;;;;11.01;74.27;101881.81;5026403;28;20040;-65
2022/05/08 02:34:45;;;;;;;0.73;0.73;;;;;;;11.01;73.57;101879.13;5025839;28;20041;-68
2022/05/08 02:37:11;;;;;;;2.10;0.60;;;;;;;10.98;73.63;101885.94;5024774;28;20034;-65
2022/05/08 02:39:37;;;;;;;0.68;0.43;;;;;;;10.93;73.98;101886.16;5026641;28;20491;-66
2022/05/08 02:42:02;;;;;;;0.73;0.40;;;;;;;10.93;74.19;101879.97;5009367;28;20033;-65
2022/05/08 02:44:28;;;;;;;0.55;0.50;;;;;;;10.82;74.82;101887.63;5025752;28;20033;-66
2022/05/08 02:46:53;;;;;;;1.55;1.20;;;;;;;10.77;75.23;101880.53;5024308;28;20089;-68
2022/05/08 02:49:19;;;;;;;9.38;0.57;;;;;;;10.78;74.87;101879.41;5026675;28;20100;-69
2022/05/08 02:51:44;;;;;;;0.28;0.28;;;;;;;10.72;75.38;101883.41;5024554;28;20523;-66
2022/05/08 02:54:10;;;;;;;0.20;0.20;;;;;;;10.73;74.93;101882.28;5025816;28;20041;-65
2022/05/08 02:59:19;;;;;;;0.63;0.30;;;;;;;10.72;74.90;101875.31;5025278;28;20088;-69
2022/05/08 03:01:44;;;;;;;0.55;0.55;;;;;;;10.65;75.32;101876.94;5028486;28;20448;-65
2022/05/08 03:04:10;;;;;;;0.28;0.25;;;;;;;10.63;75.34;101873.78;5029455;28;20484;-65
2022/05/08 03:06:36;;;;;;;1.38;0.30;;;;;;;10.56;75.78;101876.19;5031124;28;20400;-67
2022/05/08 03:09:01;;;;;;;0.55;0.55;;;;;;;10.58;75.76;101885.53;5026459;28;20037;-65
2022/05/08 03:11:27;;;;;;;0.93;0.60;;;;;;;10.55;75.66;101880.78;5031614;28;20454;-66
2022/05/08 03:13:57;;;;;;;1.85;0.57;;;;;;;10.58;75.50;101880.16;5027932;28;20037;-67
2022/05/08 03:16:23;;;;;;;0.20;0.20;;;;;;;10.50;76.12;101878.28;5030921;28;20079;-65
2022/05/08 03:18:49;;;;;;;0.47;0.47;;;;;;;10.49;75.86;101878.63;5028016;28;20053;-65
2022/05/08 03:21:15;;;;;;;0.30;0.22;;;;;;;10.45;76.02;101891.91;5030483;28;20033;-65
2022/05/08 03:23:41;;;;;;;0.22;0.22;;;;;;;10.43;75.88;101888.75;5026770;28;20045;-68
2022/05/08 03:26:08;;;;;;;1.60;0.85;;;;;;;10.40;76.11;101884.03;5030228;28;20112;-65
2022/05/08 03:28:35;;;;;;;0.43;0.43;;;;;;;10.43;75.94;101890.69;5030946;28;20033;-65
2022/05/08 03:31:00;;;;;;;0.25;0.25;;;;;;;10.41;75.61;101895.59;5027159;28;20108;-70
2022/05/08 03:33:27;;;;;;;0.30;0.30;;;;;;;10.39;75.90;101892.44;5028904;28;21171;-66
2022/05/08 03:35:52;;;;;;;11.20;0.50;;;;;;;10.34;75.86;101893.38;5029135;28;20185;-66
2022/05/08 03:38:18;;;;;;;0.43;0.43;;;;;;;10.33;75.67;101904.50;5029559;28;20095;-68
2022/05/08 03:40:43;;;;;;;0.63;0.20;;;;;;;10.29;76.04;101898.97;5026806;28;20029;-67
2022/05/08 03:43:09;;;;;;;0.43;0.43;;;;;;;10.28;76.37;101891.97;5030242;28;20044;-68
2022/05/08 03:45:35;;;;;;;0.30;0.30;;;;;;;10.28;75.81;101905.44;5029025;28;20033;-65
2022/05/08 03:48:01;;;;;;;0.30;0.30;;;;;;;10.29;76.09;101903.56;5029392;28;20041;-68
2022/05/08 03:50:28;;;;;;;0.32;0.25;;;;;;;10.27;76.09;101903.88;5027937;28;20144;-65
2022/05/08 03:52:53;;;;;;;0.73;0.40;;;;;;;10.24;76.40;101891.03;5029131;28;20030;-68
2022/05/08 03:55:19;;;;;;;0.45;0.30;;;;;;;10.22;76.58;101900.56;5027205;28;20048;-70
2022/05/08 03:57:45;;;;;;;2.28;1.20;;;;;;;10.19;76.18;101895.81;5027871;28;20491;-66
2022/05/08 04:00:12;;;;;;;0.57;0.57;;;;;;;10.15;76.30;101903.75;5023874;28;20029;-68
2022/05/08 04:02:38;;;;;;;0.38;0.28;;;;;;;10.12;76.68;101895.53;5030880;28;20041;-65
2022/05/08 04:05:05;;;;;;;0.43;0.40;;;;;;;10.11;77.04;101894.72;5026006;28;20540;-68
2022/05/08 04:07:31;;;;;;;1.60;0.57;;;;;;;10.13;76.75;101889.81;5030137;28;20033;-65
2022/05/08 04:09:58;;;;;;;0.30;0.30;;;;;;;10.13;77.45;101899.78;5028692;28;20443;-66
2022/05/08 04:12:24;;;;;;;1.33;0.43;;;;;;;10.11;77.31;101902.81;5026821;28;20048;-65
2022/05/08 04:14:50;;;;;;;4.85;0.90;;;;;;;10.11;77.53;101897.41;5027889;28;20037;-67
2022/05/08 04:17:18;;;;;;;9.43;0.38;;;;;;;10.12;78.24;101896.31;5027624;28;20027;-65
2022/05/08 04:19:44;;;;;;;3.70;0.93;;;;;;;10.16;77.87;101908.03;5027623;28;20292;-66
2022/05/08 04:24:54;;;;;;;1.35;0.47;;;;;;;10.22;78.22;101906.72;5028020;28;20033;-67
2022/05/08 04:27:22;;;;;;;1.48;1.35;;;;;;;10.26;77.73;101906.91;5009921;28;20044;-65
2022/05/08 04:29:47;;;;;;;0.55;0.55;;;;;;;10.29;77.57;101901.66;5027462;28;20388;-65
2022/05/08 04:32:12;;;;;;;0.43;0.38;;;;;;;10.30;77.89;101908.59;5028966;28;20409;-66
2022/05/08 04:34:38;;;;;;;0.77;0.57;;;;;;;10.29;77.96;101904.34;5029123;28;20059;-65
2022/05/08 04:37:04;;;;;;;0.30;0.30;;;;;;;10.36;78.08;101915.41;5024822;28;20381;-65
2022/05/08 04:39:29;;;;;;;0.60;0.60;;;;;;;10.41;78.42;101926.00;5026828;28;20028;-66
2022/05/08 04:41:55;;;;;;;0.93;0.68;;;;;;;10.43;78.39;101920.31;5010363;28;20037;-69
2022/05/08 04:44:21;;;;;;;0.30;0.30;;;;;;;10.45;78.37;101918.84;5028814;28;20025;-69
2022/05/08 04:46:46;;;;;;;0.90;0.40;;;;;;;10.54;78.62;101932.28;5007101;28;20409;-70
2022/05/08 04:49:12;;;;;;;0.30;0.30;;;;;;;10.58;78.54;101923.25;5029232;28;20444;-66
2022/05/08 04:51:37;;;;;;;2.58;0.80;;;;;;;10.64;78.65;101930.06;5029193;28;20041;-67
2022/05/08 04:54:03;;;;;;;1.70;0.85;;;;;;;10.69;78.59;101920.97;5028462;28;20037;-70
2022/05/08 04:56:30;;;;;;;1.30;0.73;;;;;;;10.73;78.49;101928.09;5024884;28;20029;-67
2022/05/08 04:58:56;;;;;;;0.38;0.38;;;;;;;10.79;78.67;101928.69;5027815;28;20068;-69
2022/05/08 05:01:22;;;;;;;0.20;0.20;;;;;;;10.82;78.47;101934.22;5023759;28;20040;-69
2022/05/08 05:03:48;;;;;;;0.73;0.32;;;;;;;10.87;78.62;101927.88;5026890;28;20033;-65
2022/05/08 05:06:14;;;;;;;0.22;0.22;;;;;;;10.96;78.23;101933.19;5028300;28;20036;-67
2022/05/08 05:08:39;;;;;;;0.20;0.20;;;;;;;11.03;78.43;101936.19;5028197;28;20029;-65
2022/05/08 05:11:08;;;;;;;0.60;0.30;;;;;;;11.15;78.10;101928.97;5025638;28;20112;-65
2022/05/08 05:13:37;;;;;;;0.35;0.35;;;;;;;11.30;78.02;101933.03;5028863;28;20034;-68
2022/05/08 05:16:03;;;;;;;0.10;0.10;;;;;;;11.62;77.87;101940.38;5027289;28;20033;-66
2022/05/08 05:18:28;;;;;;;0.15;0.15;;;;;;;12.04;76.67;101941.94;5025690;28;20393;-66
2022/05/08 05:20:54;;;;;;;7.88;1.10;;;;;;;12.87;75.10;101939.75;5010251;28;20029;-68
2022/05/08 05:23:20;;;;;;;0.80;0.28;;;;;;;13.97;70.28;101951.94;5029353;28;20032;-67
2022/05/08 05:25:45;;;;;;;0.30;0.30;;;;;;;14.88;66.11;101954.34;5027051;28;20029;-67
2022/05/08 05:28:10;;;;;;;0.30;0.30;;;;;;;15.69;61.91;101950.75;5025003;28;20026;-67
2022/05/08 05:30:36;;;;;;;2.63;0.47;;;;;;;16.27;58.84;101960.44;5027093;28;20104;-69
2022/05/08 05:33:02;;;;;;;0.52;0.52;;;;;;;16.73;57.52;101957.72;5024196;28;20047;-66
2022/05/08 05:35:27;;;;;;;2.30;0.40;;;;;;;17.05;54.85;101967.97;5026085;28;20041;-66
2022/05/08 05:37:52;;;;;;;3.40;0.32;;;;;;;17.30;54.55;101971.06;5026837;28;20061;-69
2022/05/08 05:40:18;;;;;;;2.33;0.40;;;;;;;17.49;53.30;101970.19;5026219;28;20025;-66
2022/05/08 05:42:43;;;;;;;1.63;0.30;;;;;;;17.55;53.30;101966.00;5026601;28;20546;-66
2022/05/08 05:45:09;;;;;;;0.77;0.30;;;;;;;17.60;53.34;101977.34;5027686;28;20037;-69
2022/05/08 05:47:49;;;;;;;0.70;0.22;;;;;;;17.62;52.52;101985.94;5023958;28;20447;-67
2022/05/08 05:50:19;;;;;;;0.67;0.37;;;;;;;17.54;53.03;101984.28;5028384;28;20399;-66
2022/05/08 05:52:45;;;;;;;0.40;0.20;;;;;;;17.41;53.38;101984.84;5025959;28;20257;-63
2022/05/08 05:55:11;;;;;;;0.73;0.25;;;;;;;17.32;53.46;101990.56;5009634;28;20595;-63
2022/05/08 05:57:38;;;;;;;1.73;0.25;;;;;;;17.21;53.45;101984.16;5017242;28;20040;-63
2022/05/08 06:00:06;;;;;;;2.83;0.55;;;;;;;17.27;54.54;101990.84;5025096;28;20064;-72
2022/05/08 06:02:39;;;;;;;1.67;0.30;;;;;;;17.30;54.12;102000.25;5016828;28;20045;-61
2022/05/08 06:05:06;;;;;;;0.40;0.30;;;;;;;17.30;54.29;102000.25;5013838;28;20045;-61
2022/05/08 06:07:39;;;;;;;1.65;0.60;;;;;;;17.25;53.72;102001.34;5015008;28;20036;-61
2022/05/08 06:10:07;;;;;;;0.15;0.15;;;;;;;17.11;53.97;101993.72;5022209;28;20032;-61
2022/05/08 06:12:32;;;;;;;2.50;0.30;;;;;;;17.05;53.48;102005.31;5023864;28;20046;-60
2022/05/08 06:14:58;;;;;;;3.25;0.32;;;;;;;17.01;54.14;101996.31;5018962;28;20041;-61
2022/05/08 06:17:24;;;;;;;0.60;0.35;;;;;;;16.95;54.26;102000.47;5023586;28;20040;-62
2022/05/08 06:19:50;;;;;;;1.88;0.70;;;;;;;16.88;54.54;102003.06;5023733;28;20048;-60
2022/05/08 06:22:15;;;;;;;1.15;0.55;;;;;;;16.83;53.94;101996.03;5000970;28;20040;-62
2022/05/08 06:24:41;;;;;;;0.75;0.22;;;;;;;16.71;54.52;102000.84;5024130;28;20386;-61
2022/05/08 06:27:06;;;;;;;0.75;0.20;;;;;;;16.68;54.22;102001.59;5025568;28;20046;-62
2022/05/08 06:29:33;;;;;;;1.70;0.82;;;;;;;16.53;54.37;101994.31;5026855;28;20029;-61
2022/05/08 06:31:59;;;;;;;0.40;0.08;;;;;;;16.60;54.10;101997.94;5027399;28;20112;-62
2022/05/08 06:34:26;;;;;;;0.30;0.22;;;;;;;16.57;54.41;102000.63;5022549;28;20437;-61
2022/05/08 06:36:52;;;;;;;3.17;0.65;;;;;;;16.58;54.68;102008.41;5018060;28;20128;-63
2022/05/08 06:39:17;;;;;;;0.15;0.15;;;;;;;16.48;54.30;101994.56;5028032;28;20116;-62
2022/05/08 06:41:43;;;;;;;0.73;0.35;;;;;;;16.51;54.37;102002.81;5021787;28;20506;-63
2022/05/08 06:44:10;;;;;;;0.98;0.28;;;;;;;16.53;54.82;102000.53;5025177;28;20106;-60
2022/05/08 06:46:36;;;;;;;2.17;0.47;;;;;;;16.56;54.73;101997.09;5030536;28;20071;-61
2022/05/08 06:49:05;;;;;;;0.25;0.25;;;;;;;16.57;55.06;102004.09;5028096;28;20395;-63
2022/05/08 06:51:31;;;;;;;0.30;0.30;;;;;;;16.58;54.85;102008.41;5028803;28;20033;-63
2022/05/08 06:53:56;;;;;;;0.22;0.20;;;;;;;16.64;53.97;102015.13;5031036;28;20029;-63
2022/05/08 06:56:22;;;;;;;0.57;0.32;;;;;;;16.55;54.02;102011.84;5031096;28;20396;-62
2022/05/08 07:01:42;;;;;;;4.63;0.35;;;;;;;16.54;55.18;102013.00;5016298;28;20749;-61
2022/05/08 07:04:10;;;;;;;1.02;0.28;;;;;;;16.67;54.91;102014.38;5010937;28;20052;-60
2022/05/08 07:06:37;;;;;;;5.43;1.00;;;;;;;16.79;54.06;102024.31;5018896;28;20396;-62
2022/05/08 07:09:07;;;;;;;3.67;0.47;;;;;;;16.88;53.78;102024.84;5026114;28;20184;-61
2022/05/08 07:11:33;;;;;;;1.05;0.10;;;;;;;16.89;53.40;102026.44;5031022;28;20063;-61
2022/05/08 07:13:59;;;;;;;3.63;0.50;;;;;;;17.03;53.33;102024.72;5028986;28;20492;-64
2022/05/08 07:16:25;;;;;;;0.50;0.50;;;;;;;17.16;52.91;102030.75;5028779;28;20033;-61
2022/05/08 07:18:51;;;;;;;4.47;0.20;;;;;;;17.17;51.78;102028.84;5027559;28;20168;-62
2022/05/08 07:21:16;;;;;;;2.38;0.25;;;;;;;17.28;52.39;102027.06;5030628;28;20042;-61
2022/05/08 07:23:42;;;;;;;0.20;0.20;;;;;;;17.37;52.14;102028.38;5023724;28;20044;-61
2022/05/08 07:26:07;;;;;;;0.45;0.25;;;;;;;17.38;52.03;102031.88;5020807;28;20037;-63
2022/05/08 07:28:33;;;;;;;1.38;0.43;;;;;;;17.54;52.38;102033.31;5027587;28;20112;-61
2022/05/08 07:30:59;;;;;;;4.25;0.47;;;;;;;17.59;52.02;102035.72;5030052;28;20087;-61
2022/05/08 07:33:25;;;;;;;4.30;0.30;;;;;;;17.67;51.63;102031.16;5026878;28;20456;-62
2022/05/08 07:38:35;;;;;;;2.38;0.25;;;;;;;17.94;51.02;102030.72;5032148;28;20134;-63
2022/05/08 07:41:01;;;;;;;0.30;0.30;;;;;;;18.00;49.30;102028.50;5032534;28;20073;-62
2022/05/08 07:43:27;;;;;;;1.35;0.43;;;;;;;18.14;49.81;102023.19;5032481;28;20049;-65
2022/05/08 07:45:53;;;;;;;0.22;0.15;;;;;;;18.29;49.43;102035.06;5027991;28;20048;-62
2022/05/08 07:48:18;;;;;;;0.95;0.20;;;;;;;18.20;47.85;102026.34;5030511;28;20476;-60
2022/05/08 07:50:48;;;;;;;1.65;1.30;;;;;;;18.32;48.07;102032.34;5031853;28;20029;-63
2022/05/08 07:53:13;;;;;;;0.43;0.40;;;;;;;18.47;49.25;102045.03;5030175;28;20435;-63
2022/05/08 07:55:39;;;;;;;0.60;0.20;;;;;;;18.57;48.13;102038.09;5031493;28;20479;-63
2022/05/08 07:58:05;;;;;;;0.10;0.10;;;;;;;18.64;47.84;102040.91;5031915;28;20029;-63
2022/05/08 08:00:30;;;;;;;2.72;0.60;;;;;;;18.87;47.05;102039.56;5029945;28;20041;-61
2022/05/08 08:02:56;;;;;;;3.50;0.28;;;;;;;18.99;46.93;102038.47;5031858;28;20037;-62
2022/05/08 08:05:22;;;;;;;1.15;0.30;;;;;;;19.06;46.52;102040.50;5029434;28;20042;-63
2022/05/08 08:07:49;;;;;;;1.33;0.28;;;;;;;19.20;45.65;102030.44;5013426;28;20021;-61
2022/05/08 08:10:16;;;;;;;0.40;0.20;;;;;;;19.28;44.85;102045.75;5031276;28;20081;-63
2022/05/08 08:12:42;;;;;;;0.50;0.30;;;;;;;19.36;45.03;102050.13;5031897;28;20036;-62
2022/05/08 08:15:08;;;;;;;2.78;0.55;;;;;;;19.30;44.76;102045.38;5028422;28;20407;-62
2022/05/08 08:17:34;;;;;;;5.57;0.90;;;;;;;19.43;45.69;102043.94;5031666;28;20030;-63
2022/05/08 08:19:59;;;;;;;1.20;0.40;;;;;;;19.49;45.00;102048.66;5031454;28;20504;-61
2022/05/08 08:22:25;;;;;;;0.57;0.30;;;;;;;19.56;44.78;102051.44;5013894;28;20041;-62
2022/05/08 08:24:52;;;;;;;2.17;0.20;;;;;;;19.63;43.73;102048.75;5028085;28;20037;-64
2022/05/08 08:27:19;;;;;;;0.82;0.52;;;;;;;19.67;43.67;102046.81;5026350;28;20507;-62
2022/05/08 08:29:45;;;;;;;1.75;0.80;;;;;;;19.83;44.15;102059.38;5011615;28;20022;-63
2022/05/08 08:32:11;;;;;;;1.00;0.30;;;;;;;19.92;43.91;102054.38;5012340;28;20128;-64
2022/05/08 08:34:36;;;;;;;1.40;0.77;;;;;;;19.99;42.98;102054.41;5030098;28;20100;-63
2022/05/08 08:37:01;;;;;;;0.13;0.13;;;;;;;20.09;43.48;102056.41;5025474;28;20697;-63
2022/05/08 08:39:27;;;;;;;0.68;0.32;;;;;;;20.22;43.25;102057.66;5011756;28;20045;-63
2022/05/08 08:42:07;;;;;;;2.88;0.50;;;;;;;20.31;43.17;102060.78;5025707;28;20038;-61
2022/05/08 08:50:12;;;;;;;0.90;0.20;;;;;;;20.53;42.81;102074.16;5020524;28;20111;-63
2022/05/08 08:52:38;;;;;;;0.65;0.57;;;;;;;20.66;42.23;102066.38;5030490;28;20029;-62
2022/05/08 08:55:08;;;;;;;0.95;0.40;;;;;;;20.77;41.95;102060.91;5030694;28;20447;-63
2022/05/08 08:57:34;;;;;;;1.30;0.30;;;;;;;20.82;42.43;102055.81;5030225;28;20064;-63
2022/05/08 09:00:00;;;;;;;0.22;0.15;;;;;;;21.01;42.99;102062.91;5028037;28;20026;-62
2022/05/08 09:02:25;;;;;;;0.90;0.30;;;;;;;21.12;42.22;102050.78;5022798;28;20385;-61
2022/05/08 09:04:51;;;;;;;0.68;0.20;;;;;;;21.08;41.34;102058.22;5030772;28;20057;-61
2022/05/08 09:07:44;;;;;;;1.42;0.40;;;;;;;21.28;40.94;102064.88;5030434;28;20056;-61
2022/05/08 09:10:10;;;;;;;2.17;0.20;;;;;;;21.28;40.34;102053.13;5025437;28;20128;-63
2022/05/08 09:12:36;;;;;;;1.02;0.22;;;;;;;21.41;40.15;102066.03;5030484;28;20159;-62
2022/05/08 09:15:21;;;;;;;0.60;0.30;;;;;;;21.51;40.00;102059.75;5030643;28;20353;-61
2022/05/08 09:17:53;;;;;;;1.02;0.20;;;;;;;21.57;40.53;102068.34;5027137;28;20030;-61
2022/05/08 09:20:37;;;;;;;4.00;0.98;;;;;;;21.70;39.79;102064.00;5030050;28;20124;-62
2022/05/08 09:23:19;;;;;;;2.85;0.28;;;;;;;21.81;39.55;102066.75;5030862;28;20419;-62
2022/05/08 09:25:49;;;;;;;2.05;0.40;;;;;;;21.97;39.29;102073.34;5029437;28;20103;-63
2022/05/08 09:28:24;;;;;;;1.67;0.22;;;;;;;22.07;39.68;102069.78;5027510;28;20484;-63
2022/05/08 09:31:07;;;;;;;0.65;0.20;;;;;;;22.10;39.25;102066.25;5027934;28;20091;-62
2022/05/08 09:33:39;;;;;;;0.73;0.30;;;;;;;22.21;38.89;102068.94;5022972;28;20403;-61
2022/05/08 09:36:16;;;;;;;3.63;0.20;;;;;;;22.18;38.32;102070.53;5029250;28;20045;-63
2022/05/08 09:39:03;;;;;;;0.20;0.20;;;;;;;22.39;38.30;102062.22;5030141;28;20383;-63
2022/05/08 09:41:31;;;;;;;3.83;0.40;;;;;;;22.57;39.28;102066.84;5026615;28;20042;-62
2022/05/08 09:44:13;;;;;;;0.20;0.10;;;;;;;22.68;39.84;102060.09;5025205;28;20091;-64
2022/05/08 09:46:40;;;;;;;1.48;0.30;;;;;;;22.65;39.39;102062.88;5023301;28;20144;-62
2022/05/08 09:49:06;;;;;;;0.47;0.30;;;;;;;22.72;38.30;102068.31;5027679;28;20041;-62
2022/05/08 09:51:33;;;;;;;0.43;0.43;;;;;;;22.90;37.85;102061.47;5029605;28;20116;-62
2022/05/08 09:53:59;;;;;;;1.25;0.50;;;;;;;22.85;37.39;102067.41;5030048;28;20260;-61
2022/05/08 09:56:25;;;;;;;0.55;0.30;;;;;;;22.93;37.49;102065.41;5029931;28;20228;-63
2022/05/08 09:58:51;;;;;;;1.13;0.60;;;;;;;23.21;37.37;102060.44;5027323;28;20472;-62
2022/05/08 10:01:16;;;;;;;2.45;0.40;;;;;;;23.29;37.25;102069.41;5029856;28;20118;-59
2022/05/08 10:03:43;;;;;;;0.47;0.22;;;;;;;23.31;37.75;102072.56;5029683;28;20068;-63
2022/05/08 10:06:09;;;;;;;0.38;0.25;;;;;;;23.46;37.09;102076.72;5029847;28;20055;-62
2022/05/08 10:08:39;;;;;;;0.68;0.20;;;;;;;23.46;36.76;102065.72;5026858;28;20126;-63
2022/05/08 10:13:56;;;;;;;1.35;0.65;;;;;;;23.79;36.69;102064.22;5029717;28;20033;-62
2022/05/08 10:16:49;;;;;;;3.08;0.70;;;;;;;23.79;36.70;102059.47;5026801;28;20033;-64
2022/05/08 10:19:17;;;;;;;1.02;0.30;;;;;;;23.80;36.23;102063.81;5029498;28;20103;-63
2022/05/08 10:22:09;;;;;;;0.65;0.20;;;;;;;24.06;36.72;102067.88;5028659;28;20434;-61
2022/05/08 10:24:35;;;;;;;0.73;0.50;;;;;;;23.98;35.40;102063.59;5028784;28;20033;-63
2022/05/08 10:27:17;;;;;;;1.45;0.77;;;;;;;24.04;34.45;102067.50;5027248;28;20033;-64
2022/05/08 10:29:52;;;;;;;1.02;0.20;;;;;;;24.07;34.95;102070.22;5028172;28;20064;-63
2022/05/08 10:32:33;;;;;;;0.50;0.30;;;;;;;23.98;35.01;102061.63;5030261;28;20117;-62
2022/05/08 10:35:22;;;;;;;2.00;0.63;;;;;;;24.20;34.93;102067.66;5026107;28;20029;-62
2022/05/08 10:38:16;;;;;;;2.58;0.20;;;;;;;24.33;34.35;102054.13;5029310;28;20494;-62
2022/05/08 10:40:42;;;;;;;0.30;0.20;;;;;;;24.43;34.05;102058.72;5025456;28;20140;-62
2022/05/08 10:43:14;;;;;;;3.47;0.88;;;;;;;24.58;34.17;102060.06;5026568;28;20395;-62
2022/05/08 10:45:42;;;;;;;0.13;0.13;;;;;;;24.73;34.16;102051.22;5027677;28;20091;-62
2022/05/08 10:48:08;;;;;;;0.85;0.20;;;;;;;24.74;35.28;102055.50;5011522;28;20034;-62
2022/05/08 10:50:35;;;;;;;0.63;0.35;;;;;;;24.90;34.35;102063.94;5029527;28;20086;-62
2022/05/08 10:53:01;;;;;;;0.65;0.28;;;;;;;24.94;33.66;102053.63;5026676;28;20029;-63
2022/05/08 10:55:27;;;;;;;0.40;0.20;;;;;;;24.94;33.30;102059.13;5029178;28;20052;-61
2022/05/08 10:57:54;;;;;;;0.82;0.50;;;;;;;25.05;33.18;102062.50;5029164;28;20083;-63
2022/05/08 11:00:24;;;;;;;0.40;0.30;;;;;;;24.93;33.65;102060.31;5029164;28;20049;-64
2022/05/08 11:02:55;;;;;;;0.47;0.25;;;;;;;24.92;33.44;102056.03;5027420;28;20029;-63
2022/05/08 11:05:25;;;;;;;3.65;0.70;;;;;;;24.83;33.50;102064.06;5028739;28;20487;-63
2022/05/08 11:07:57;;;;;;;0.63;0.30;;;;;;;25.11;34.45;102062.78;5029245;28;20033;-63
2022/05/08 11:10:42;;;;;;;1.25;0.60;;;;;;;25.18;33.93;102056.38;5027474;28;20502;-62
2022/05/08 11:13:12;;;;;;;1.25;0.30;;;;;;;25.27;33.42;102056.59;5029448;28;20037;-63
2022/05/08 11:15:50;;;;;;;0.50;0.38;;;;;;;25.38;33.66;102062.72;5026003;28;20243;-63
2022/05/08 11:18:17;;;;;;;0.65;0.25;;;;;;;25.45;34.13;102060.66;5026459;28;20399;-65
2022/05/08 11:20:59;;;;;;;0.30;0.20;;;;;;;25.32;32.92;102061.66;5028710;28;20076;-64
2022/05/08 11:23:31;;;;;;;0.32;0.32;;;;;;;25.42;33.85;102052.41;5030024;28;20439;-64
2022/05/08 11:25:59;;;;;;;0.68;0.30;;;;;;;25.35;33.22;102058.03;5029336;28;20107;-64
2022/05/08 11:28:26;;;;;;;0.82;0.40;;;;;;;25.48;33.08;102048.75;5032363;28;20034;-65
2022/05/08 11:30:53;;;;;;;1.10;0.40;;;;;;;25.68;33.26;102043.25;5032843;28;20029;-63
2022/05/08 11:36:23;;;;;;;0.90;0.28;;;;;;;25.70;32.53;102041.63;5029478;28;20372;-64
2022/05/08 11:38:55;;;;;;;1.08;0.38;;;;;;;25.79;32.92;102047.38;5032543;28;20040;-63
2022/05/08 11:41:32;;;;;;;0.40;0.32;;;;;;;25.69;32.89;102050.31;5032583;28;20038;-64
2022/05/08 11:44:02;;;;;;;0.65;0.40;;;;;;;25.77;33.36;102054.50;5025507;28;20393;-63
2022/05/08 11:46:38;;;;;;;3.03;0.28;;;;;;;25.76;33.26;102053.72;5012355;28;20069;-64
2022/05/08 11:49:12;;;;;;;0.17;0.17;;;;;;;25.41;33.26;102048.13;5012825;28;20124;-63